Time;durP1;ratioP1;P1;durP2;ratioP2;P2;SDS_P1;SDS_P2;PMS_P1;PMS_P2;Temp;Humidity;BMP_temperature;BMP_pressure;BME280_temperature;BME280_humidity;BME280_pressure;Samples;Min_cycle;Max_cycle;Signal;HPM_P1;HPM_P2
2022/10/25 00:00:20;;;;;;;0.13;0.13;;;;;;;10.65;100.00;96399.25;4950308;28;20122;-75
2022/10/25 00:03:07;;;;;;;0.10;0.10;;;;;;;10.67;100.00;96409.72;4954666;28;20125;-75
2022/10/25 00:05:53;;;;;;;0.10;0.10;;;;;;;10.67;100.00;96407.84;4953258;28;20054;-73
2022/10/25 00:08:39;;;;;;;0.10;0.10;;;;;;;10.72;100.00;96409.75;4937483;28;20580;-71
2022/10/25 00:11:27;;;;;;;0.30;0.20;;;;;;;10.72;100.00;96405.22;4953634;28;20043;-71
2022/10/25 00:14:17;;;;;;;0.10;0.10;;;;;;;10.67;100.00;96410.53;4938285;28;20046;-73
2022/10/25 00:17:03;;;;;;;0.15;0.10;;;;;;;10.62;100.00;96399.75;4952637;28;20036;-74
2022/10/25 00:19:49;;;;;;;0.10;0.10;;;;;;;10.58;100.00;96387.91;4954285;28;20043;-75
2022/10/25 00:22:34;;;;;;;0.10;0.10;;;;;;;10.58;100.00;96393.28;4954007;28;20058;-74
2022/10/25 00:25:20;;;;;;;0.10;0.10;;;;;;;10.54;100.00;96397.50;4952099;28;20510;-75
2022/10/25 00:28:10;;;;;;;0.20;0.10;;;;;;;10.53;100.00;96390.56;4950821;28;20062;-75
2022/10/25 00:31:07;;;;;;;0.10;0.10;;;;;;;10.49;100.00;96387.53;4953808;28;20113;-75
2022/10/25 00:33:53;;;;;;;0.10;0.10;;;;;;;10.47;100.00;96405.72;4953433;28;20039;-73
2022/10/25 00:36:39;;;;;;;0.10;0.10;;;;;;;10.45;100.00;96399.81;4954772;28;20053;-74
2022/10/25 00:39:25;;;;;;;0.10;0.10;;;;;;;10.43;100.00;96412.66;4950312;28;20082;-74
2022/10/25 00:42:20;;;;;;;0.10;0.10;;;;;;;10.47;100.00;96396.91;4949033;28;20390;-75
2022/10/25 00:45:27;;;;;;;0.13;0.13;;;;;;;10.45;100.00;96404.38;4950663;28;20102;-75
2022/10/25 00:48:14;;;;;;;0.10;0.10;;;;;;;10.47;100.00;96402.25;4950605;28;20058;-72
2022/10/25 00:51:01;;;;;;;0.10;0.10;;;;;;;10.47;100.00;96404.91;4939900;28;20634;-73
2022/10/25 00:53:48;;;;;;;0.20;0.20;;;;;;;10.48;100.00;96403.84;4950578;28;20054;-74
2022/10/25 00:56:38;;;;;;;0.10;0.10;;;;;;;10.43;100.00;96398.47;4938146;28;20206;-73
2022/10/25 00:59:26;;;;;;;0.20;0.20;;;;;;;10.48;100.00;96399.31;4950187;28;20133;-73
2022/10/25 01:02:13;;;;;;;0.10;0.10;;;;;;;10.42;100.00;96391.47;4951663;28;20398;-72
2022/10/25 01:05:00;;;;;;;0.20;0.20;;;;;;;10.42;100.00;96402.16;4951691;28;20289;-73
2022/10/25 01:07:46;;;;;;;0.10;0.10;;;;;;;10.40;100.00;96401.63;4948533;28;20091;-74
2022/10/25 01:10:32;;;;;;;0.20;0.20;;;;;;;10.39;100.00;96416.84;4950293;28;20162;-75
2022/10/25 01:13:18;;;;;;;0.10;0.10;;;;;;;10.36;100.00;96413.88;4950021;28;20078;-74
2022/10/25 01:16:31;;;;;;;0.10;0.10;;;;;;;10.40;100.00;96420.34;4952104;28;20047;-75
2022/10/25 01:19:50;;;;;;;0.10;0.10;;;;;;;10.42;100.00;96412.88;4948033;28;20070;-74
2022/10/25 01:22:47;;;;;;;0.15;0.15;;;;;;;10.40;100.00;96420.34;4952289;28;20224;-74
2022/10/25 01:26:26;;;;;;;0.10;0.10;;;;;;;10.43;100.00;96411.84;4949289;28;20059;-73
2022/10/25 01:29:14;;;;;;;0.10;0.10;;;;;;;10.41;100.00;96406.72;4932640;28;20590;-73
2022/10/25 01:32:12;;;;;;;0.10;0.10;;;;;;;10.40;100.00;96412.31;4946260;28;20074;-73
2022/10/25 01:35:24;;;;;;;0.10;0.10;;;;;;;10.44;100.00;96424.97;4950456;28;20146;-72
2022/10/25 01:38:13;;;;;;;0.22;0.20;;;;;;;10.47;100.00;96426.31;4950561;28;20518;-74
2022/10/25 01:41:08;;;;;;;0.10;0.10;;;;;;;10.42;100.00;96415.53;4950755;28;20046;-75
2022/10/25 01:44:24;;;;;;;0.10;0.10;;;;;;;10.44;100.00;96427.63;4950483;28;20122;-73
2022/10/25 01:47:21;;;;;;;0.10;0.10;;;;;;;10.45;100.00;96428.44;4948578;28;20199;-75
2022/10/25 01:50:15;;;;;;;0.22;0.13;;;;;;;10.42;100.00;96419.03;4947121;28;20055;-74
2022/10/25 01:53:00;;;;;;;0.10;0.10;;;;;;;10.37;100.00;96424.31;4939307;28;20061;-75
2022/10/25 01:55:58;;;;;;;0.20;0.20;;;;;;;10.38;100.00;96414.44;4948441;28;20038;-75
2022/10/25 01:58:56;;;;;;;0.10;0.10;;;;;;;10.39;100.00;96422.22;4951985;28;20050;-73
2022/10/25 02:02:20;;;;;;;0.10;0.10;;;;;;;10.37;100.00;96429.69;4933433;28;20050;-73
2022/10/25 02:05:20;;;;;;;0.10;0.10;;;;;;;10.32;100.00;96432.28;4891404;29;20654;-75
2022/10/25 02:08:05;;;;;;;0.20;0.17;;;;;;;10.32;100.00;96427.72;4951812;28;20583;-75
2022/10/25 02:11:05;;;;;;;0.10;0.10;;;;;;;10.25;100.00;96429.78;4949122;28;20302;-75
2022/10/25 02:13:54;;;;;;;0.20;0.20;;;;;;;10.26;100.00;96431.38;4950934;28;20134;-75
2022/10/25 02:16:51;;;;;;;0.10;0.10;;;;;;;10.22;100.00;96422.25;4950067;28;20050;-73
2022/10/25 02:19:46;;;;;;;0.13;0.13;;;;;;;10.19;100.00;96421.91;4950244;28;20487;-73
2022/10/25 02:22:33;;;;;;;0.10;0.10;;;;;;;10.19;100.00;96416.53;4950835;28;20591;-73
2022/10/25 02:25:20;;;;;;;0.20;0.20;;;;;;;10.26;100.00;96419.88;4946886;28;20038;-75
2022/10/25 02:28:10;;;;;;;0.10;0.10;;;;;;;10.35;100.00;96430.97;4947829;28;20411;-76
2022/10/25 02:30:58;;;;;;;0.10;0.10;;;;;;;10.43;100.00;96426.03;4951039;28;20394;-75
2022/10/25 02:33:45;;;;;;;0.10;0.10;;;;;;;10.50;100.00;96425.81;4952261;28;20038;-74
2022/10/25 02:36:31;;;;;;;0.10;0.10;;;;;;;10.59;100.00;96429.69;4952104;28;20474;-74
2022/10/25 02:39:19;;;;;;;0.10;0.10;;;;;;;10.68;100.00;96433.53;4952092;28;20621;-74
2022/10/25 02:42:05;;;;;;;0.10;0.10;;;;;;;10.72;100.00;96431.16;4947475;28;20125;-75
2022/10/25 02:44:51;;;;;;;0.10;0.10;;;;;;;10.65;100.00;96423.31;4950039;28;20070;-73
2022/10/25 02:47:37;;;;;;;0.20;0.20;;;;;;;10.57;100.00;96418.41;4948419;28;20145;-74
2022/10/25 02:50:23;;;;;;;0.10;0.10;;;;;;;10.47;100.00;96431.66;4952978;28;20551;-73
2022/10/25 02:53:09;;;;;;;0.10;0.10;;;;;;;10.43;100.00;96431.38;4951309;28;20047;-75
2022/10/25 02:55:59;;;;;;;0.10;0.10;;;;;;;10.41;100.00;96427.31;4958096;28;20272;-75
2022/10/25 02:58:47;;;;;;;0.20;0.20;;;;;;;10.28;100.00;96425.81;4954647;28;20086;-74
2022/10/25 03:01:33;;;;;;;0.10;0.10;;;;;;;10.35;100.00;96430.97;4952279;28;20374;-74
2022/10/25 03:04:19;;;;;;;0.10;0.10;;;;;;;10.40;100.00;96439.06;4953080;28;20145;-75
2022/10/25 03:07:05;;;;;;;0.10;0.10;;;;;;;10.41;100.00;96440.69;4953072;28;20078;-75
2022/10/25 03:09:50;;;;;;;0.10;0.10;;;;;;;10.40;100.00;96433.72;4952469;28;20161;-74
2022/10/25 03:12:36;;;;;;;0.10;0.10;;;;;;;10.39;100.00;96432.91;4954090;28;20181;-74
2022/10/25 03:15:22;;;;;;;0.10;0.10;;;;;;;10.37;100.00;96431.53;4950469;28;20038;-74
2022/10/25 03:18:08;;;;;;;0.25;0.20;;;;;;;10.30;100.00;96437.88;4951546;28;20039;-75
2022/10/25 03:20:59;;;;;;;0.10;0.10;;;;;;;10.22;100.00;96442.81;4942813;28;20204;-75
2022/10/25 03:23:45;;;;;;;0.10;0.10;;;;;;;10.17;100.00;96438.19;4952487;28;20054;-74
2022/10/25 03:26:30;;;;;;;0.20;0.20;;;;;;;10.13;100.00;96441.63;4953487;28;20051;-74
2022/10/25 03:29:16;;;;;;;0.10;0.10;;;;;;;10.10;100.00;96440.22;4949845;28;20063;-75
2022/10/25 03:32:04;;;;;;;0.10;0.10;;;;;;;10.03;100.00;96437.72;4949841;28;20257;-73
2022/10/25 03:34:50;;;;;;;0.10;0.10;;;;;;;10.10;100.00;96455.47;4955775;28;20039;-75
2022/10/25 03:37:36;;;;;;;0.10;0.10;;;;;;;10.05;100.00;96446.31;4955193;28;20047;-73
2022/10/25 03:40:22;;;;;;;0.20;0.20;;;;;;;10.00;100.00;96442.75;4951585;28;20046;-75
2022/10/25 03:43:08;;;;;;;0.20;0.20;;;;;;;10.10;100.00;96458.13;4945758;28;20292;-75
2022/10/25 03:45:54;;;;;;;0.10;0.10;;;;;;;10.19;100.00;96452.13;4955219;28;20158;-75
2022/10/25 03:48:40;;;;;;;0.20;0.20;;;;;;;10.17;100.00;96440.06;4951072;28;20353;-73
2022/10/25 03:51:26;;;;;;;0.10;0.10;;;;;;;10.13;100.00;96452.31;4953533;28;20042;-74
2022/10/25 03:54:11;;;;;;;0.20;0.15;;;;;;;10.08;100.00;96450.34;4950802;28;20407;-74
2022/10/25 03:56:58;;;;;;;0.20;0.20;;;;;;;10.05;100.00;96461.56;4952965;28;20055;-73
2022/10/25 03:59:44;;;;;;;0.10;0.10;;;;;;;10.01;100.00;96463.09;4952241;28;20042;-75
2022/10/25 04:02:29;;;;;;;0.10;0.10;;;;;;;10.01;100.00;96457.75;4951695;28;20508;-74
2022/10/25 04:05:15;;;;;;;0.10;0.10;;;;;;;10.02;100.00;96457.50;4952557;28;20043;-73
2022/10/25 04:08:01;;;;;;;0.20;0.20;;;;;;;9.99;100.00;96468.69;4955056;28;20518;-75
2022/10/25 04:10:47;;;;;;;0.20;0.20;;;;;;;9.98;100.00;96458.25;4952856;28;20541;-74
2022/10/25 04:13:33;;;;;;;0.10;0.10;;;;;;;9.99;100.00;96459.84;4952650;28;20043;-75
2022/10/25 04:16:19;;;;;;;0.15;0.15;;;;;;;10.00;100.00;96453.44;4952770;28;20047;-73
2022/10/25 04:19:05;;;;;;;0.13;0.13;;;;;;;9.95;100.00;96464.06;4951677;28;20121;-74
2022/10/25 04:21:51;;;;;;;0.10;0.10;;;;;;;9.88;100.00;96466.88;4955084;28;20133;-73
2022/10/25 04:24:37;;;;;;;0.20;0.20;;;;;;;9.84;100.00;96457.75;4952777;28;20043;-73
2022/10/25 04:27:22;;;;;;;0.10;0.10;;;;;;;9.88;100.00;96466.88;4950266;28;20174;-74
2022/10/25 04:30:09;;;;;;;0.20;0.10;;;;;;;9.88;100.00;96464.22;4953842;28;20046;-73
2022/10/25 04:32:58;;;;;;;0.17;0.17;;;;;;;9.85;100.00;96474.59;4951864;28;20090;-75
2022/10/25 04:35:52;;;;;;;0.10;0.10;;;;;;;9.82;100.00;96464.41;4952075;28;20108;-75
2022/10/25 04:38:38;;;;;;;0.13;0.13;;;;;;;9.82;100.00;96467.88;4952848;28;20232;-75
2022/10/25 04:41:24;;;;;;;0.17;0.10;;;;;;;9.76;100.00;96469.66;4952106;28;20038;-73
2022/10/25 04:44:09;;;;;;;0.10;0.10;;;;;;;9.70;100.00;96469.81;4951671;28;20433;-75
2022/10/25 04:46:55;;;;;;;0.10;0.10;;;;;;;9.71;100.00;96474.09;4953498;28;20054;-75
2022/10/25 04:49:41;;;;;;;0.10;0.10;;;;;;;9.73;100.00;96466.66;4953671;28;20047;-74
2022/10/25 04:52:28;;;;;;;0.10;0.10;;;;;;;9.74;100.00;96468.28;4951126;28;20042;-73
2022/10/25 04:55:14;;;;;;;0.10;0.10;;;;;;;9.73;100.00;96480.03;4950228;28;20260;-74
2022/10/25 04:58:00;;;;;;;0.20;0.20;;;;;;;9.73;100.00;96478.16;4950741;28;20113;-74
2022/10/25 05:00:46;;;;;;;0.10;0.10;;;;;;;9.71;100.00;96479.44;4954210;28;20054;-74
2022/10/25 05:03:33;;;;;;;0.10;0.10;;;;;;;9.69;100.00;96471.69;4938004;28;20035;-73
2022/10/25 05:06:21;;;;;;;0.10;0.10;;;;;;;9.64;100.00;96468.91;4953652;28;20078;-75
2022/10/25 05:09:07;;;;;;;0.10;0.10;;;;;;;9.69;100.00;96471.69;4952230;28;20069;-75
2022/10/25 05:11:52;;;;;;;0.10;0.10;;;;;;;9.74;100.00;96473.63;4940021;28;20046;-77
2022/10/25 05:14:38;;;;;;;0.10;0.10;;;;;;;9.80;100.00;96471.84;4954100;28;20137;-73
2022/10/25 05:17:24;;;;;;;0.10;0.10;;;;;;;9.88;100.00;96479.44;4948661;28;20499;-73
2022/10/25 05:20:10;;;;;;;0.10;0.10;;;;;;;9.88;100.00;96474.91;4952240;28;20589;-73
2022/10/25 05:22:56;;;;;;;0.10;0.10;;;;;;;9.81;100.00;96476.16;4952740;28;20454;-73
2022/10/25 05:25:41;;;;;;;0.10;0.10;;;;;;;9.70;100.00;96472.47;4940494;28;20042;-72
2022/10/25 05:28:27;;;;;;;0.10;0.10;;;;;;;9.63;100.00;96499.34;4952791;28;20578;-74
2022/10/25 05:31:19;;;;;;;0.20;0.20;;;;;;;9.63;100.00;96495.88;4952510;28;20042;-72
2022/10/25 05:34:05;;;;;;;0.10;0.10;;;;;;;9.59;100.00;96487.53;4951334;28;20355;-73
2022/10/25 05:36:50;;;;;;;0.17;0.17;;;;;;;9.56;100.00;96497.88;4949554;28;20042;-76
2022/10/25 05:39:37;;;;;;;0.20;0.20;;;;;;;9.56;100.00;96513.91;4952863;28;20039;-73
2022/10/25 05:42:22;;;;;;;0.10;0.10;;;;;;;9.50;100.00;96505.03;4952326;28;20043;-73
2022/10/25 05:45:09;;;;;;;0.10;0.10;;;;;;;9.46;100.00;96501.19;4942364;28;20046;-75
2022/10/25 05:47:54;;;;;;;0.17;0.17;;;;;;;9.47;100.00;96510.81;4953577;28;20089;-75
2022/10/25 05:50:40;;;;;;;0.10;0.10;;;;;;;9.51;100.00;96511.97;4953242;28;20035;-74
2022/10/25 05:53:26;;;;;;;0.20;0.20;;;;;;;9.55;100.00;96528.31;4948683;28;21015;-72
2022/10/25 05:56:13;;;;;;;0.10;0.10;;;;;;;9.65;100.00;96528.50;4952818;28;20654;-74
2022/10/25 05:59:07;;;;;;;0.10;0.10;;;;;;;9.77;100.00;96527.41;4952288;28;20342;-74
2022/10/25 06:01:53;;;;;;;0.17;0.17;;;;;;;9.83;100.00;96530.97;4952931;28;20399;-76
2022/10/25 06:04:39;;;;;;;0.20;0.20;;;;;;;9.94;100.00;96529.25;4954627;28;20199;-73
2022/10/25 06:07:25;;;;;;;0.13;0.13;;;;;;;9.99;100.00;96530.16;4952088;28;20055;-73
2022/10/25 06:10:10;;;;;;;0.10;0.10;;;;;;;10.07;100.00;96539.66;4950719;28;20051;-74
2022/10/25 06:12:56;;;;;;;0.10;0.10;;;;;;;10.02;100.00;96534.22;4950283;28;20041;-76
2022/10/25 06:15:42;;;;;;;0.10;0.10;;;;;;;10.16;100.00;96546.22;4952126;28;20051;-74
2022/10/25 06:18:28;;;;;;;0.13;0.13;;;;;;;10.23;100.00;96544.22;4949702;28;20485;-75
2022/10/25 06:21:17;;;;;;;0.10;0.10;;;;;;;10.16;100.00;96535.50;4951323;28;20431;-75
2022/10/25 06:24:04;;;;;;;0.10;0.10;;;;;;;10.24;100.00;96539.66;4952316;28;20043;-76
2022/10/25 06:26:50;;;;;;;0.17;0.17;;;;;;;10.25;100.00;96558.16;4951646;28;20074;-74
2022/10/25 06:29:36;;;;;;;0.10;0.10;;;;;;;10.25;100.00;96554.66;4950862;28;20047;-75
2022/10/25 06:32:21;;;;;;;0.10;0.10;;;;;;;10.21;100.00;96557.00;4949811;28;20400;-74
2022/10/25 06:35:08;;;;;;;0.10;0.10;;;;;;;10.09;100.00;96568.81;4950934;28;20606;-76
2022/10/25 06:38:01;;;;;;;0.10;0.10;;;;;;;10.15;100.00;96565.97;4953153;28;20519;-76
2022/10/25 06:40:47;;;;;;;0.10;0.10;;;;;;;10.32;100.00;96566.81;4952894;28;20506;-76
2022/10/25 06:43:35;;;;;;;0.10;0.10;;;;;;;10.45;100.00;96571.03;4949721;28;20053;-74
2022/10/25 06:46:24;;;;;;;0.17;0.17;;;;;;;10.48;100.00;96572.41;4951838;28;20038;-74
2022/10/25 06:49:10;;;;;;;0.10;0.10;;;;;;;10.59;100.00;96577.66;4952619;28;20031;-76
2022/10/25 06:51:56;;;;;;;0.15;0.15;;;;;;;10.49;100.00;96574.81;4951828;28;20136;-76
2022/10/25 06:54:42;;;;;;;0.10;0.10;;;;;;;10.59;100.00;96579.53;4951866;28;20059;-74
2022/10/25 06:57:27;;;;;;;0.20;0.20;;;;;;;10.68;100.00;96590.63;4951406;28;20118;-76
2022/10/25 07:00:14;;;;;;;0.10;0.10;;;;;;;10.79;100.00;96590.53;4934145;28;20161;-76
2022/10/25 07:02:59;;;;;;;0.10;0.10;;;;;;;10.81;100.00;96577.69;4953317;28;20465;-74
2022/10/25 07:05:45;;;;;;;0.20;0.20;;;;;;;10.87;100.00;96584.75;4949798;28;20068;-76
2022/10/25 07:08:33;;;;;;;0.20;0.20;;;;;;;10.92;100.00;96592.03;4947189;28;20494;-76
2022/10/25 07:11:20;;;;;;;0.10;0.10;;;;;;;10.95;100.00;96602.25;4937226;28;20047;-76
2022/10/25 07:14:08;;;;;;;0.10;0.10;;;;;;;10.93;100.00;96603.56;4953371;28;20046;-74
2022/10/25 07:16:54;;;;;;;0.10;0.10;;;;;;;11.00;100.00;96598.84;4956816;28;20150;-74
2022/10/25 07:19:40;;;;;;;0.10;0.10;;;;;;;11.06;100.00;96603.22;4951967;28;20189;-71
2022/10/25 07:22:26;;;;;;;0.10;0.10;;;;;;;11.02;100.00;96608.25;4951911;28;20042;-72
2022/10/25 07:25:12;;;;;;;0.28;0.20;;;;;;;11.07;100.00;96607.50;4953846;28;20057;-72
2022/10/25 07:27:57;;;;;;;0.20;0.13;;;;;;;11.08;100.00;96614.47;4950315;28;20046;-74
2022/10/25 07:30:45;;;;;;;0.10;0.10;;;;;;;11.08;100.00;96620.66;4953289;28;20070;-74
2022/10/25 07:33:31;;;;;;;0.20;0.20;;;;;;;11.18;100.00;96621.84;4950152;28;20526;-73
2022/10/25 07:36:18;;;;;;;0.10;0.10;;;;;;;11.26;100.00;96614.16;4956658;28;20039;-72
2022/10/25 07:39:04;;;;;;;0.10;0.10;;;;;;;11.22;100.00;96621.09;4957328;28;20557;-75
2022/10/25 07:41:53;;;;;;;0.10;0.10;;;;;;;11.11;100.00;96622.81;4956235;28;20511;-76
2022/10/25 07:44:38;;;;;;;0.10;0.10;;;;;;;11.16;100.00;96624.75;4952539;28;20173;-75
2022/10/25 07:47:24;;;;;;;0.10;0.10;;;;;;;11.26;100.00;96627.56;4959244;28;20151;-75
2022/10/25 07:50:10;;;;;;;0.10;0.10;;;;;;;11.25;100.00;96625.94;4955370;28;20043;-76
2022/10/25 07:52:57;;;;;;;0.20;0.10;;;;;;;11.37;100.00;96631.19;4955733;28;20083;-77
2022/10/25 07:55:51;;;;;;;0.20;0.10;;;;;;;11.60;100.00;96635.50;4957636;28;20169;-74
2022/10/25 07:58:37;;;;;;;0.10;0.10;;;;;;;11.60;100.00;96635.50;4958255;28;20046;-75
2022/10/25 08:01:26;;;;;;;0.10;0.10;;;;;;;11.68;100.00;96637.75;4957312;28;20083;-75
2022/10/25 08:04:11;;;;;;;0.10;0.10;;;;;;;11.71;100.00;96637.22;4955045;28;20471;-75
2022/10/25 08:07:00;;;;;;;0.20;0.20;;;;;;;11.65;100.00;96635.53;4941087;28;20051;-75
2022/10/25 08:09:45;;;;;;;0.10;0.10;;;;;;;11.57;100.00;96642.16;4943882;28;20043;-74
2022/10/25 08:12:31;;;;;;;0.10;0.10;;;;;;;11.67;100.00;96638.78;4953610;28;20131;-74
2022/10/25 08:15:17;;;;;;;0.10;0.10;;;;;;;11.80;100.00;96630.38;4955479;28;20044;-73
2022/10/25 08:18:03;;;;;;;0.15;0.13;;;;;;;11.77;100.00;96648.81;4954233;28;20039;-73
2022/10/25 08:20:49;;;;;;;0.10;0.10;;;;;;;12.09;100.00;96641.69;4939411;28;20129;-74
2022/10/25 08:23:35;;;;;;;0.10;0.10;;;;;;;12.63;100.00;96635.44;4955436;28;20086;-72
2022/10/25 08:26:25;;;;;;;0.10;0.10;;;;;;;12.68;100.00;96628.22;4953882;28;20047;-73
2022/10/25 08:29:11;;;;;;;0.10;0.10;;;;;;;12.88;100.00;96632.94;4955863;28;20321;-74
2022/10/25 08:31:58;;;;;;;0.13;0.13;;;;;;;12.90;100.00;96632.69;4955553;28;20038;-74
2022/10/25 08:34:44;;;;;;;0.10;0.10;;;;;;;12.75;100.00;96626.13;4942824;28;20050;-73
2022/10/25 08:37:30;;;;;;;0.13;0.13;;;;;;;13.02;100.00;96627.94;4954822;28;20320;-73
2022/10/25 08:40:23;;;;;;;0.10;0.10;;;;;;;13.10;100.00;96633.63;4953103;28;20137;-73
2022/10/25 08:43:23;;;;;;;0.10;0.10;;;;;;;13.25;100.00;96632.13;4952963;28;20038;-75
2022/10/25 08:46:30;;;;;;;0.10;0.10;;;;;;;13.53;100.00;96631.69;4953034;28;20181;-75
2022/10/25 08:49:25;;;;;;;0.10;0.10;;;;;;;13.73;100.00;96636.34;4954914;28;20081;-74
2022/10/25 08:52:19;;;;;;;0.10;0.10;;;;;;;13.33;100.00;96635.13;4952952;28;20049;-76
2022/10/25 08:55:13;;;;;;;0.10;0.10;;;;;;;13.75;100.00;96638.78;4943610;28;20042;-75
2022/10/25 08:58:02;;;;;;;0.10;0.10;;;;;;;14.00;100.00;96633.47;4955416;28;20089;-75
2022/10/25 09:00:48;;;;;;;0.10;0.10;;;;;;;14.33;100.00;96629.50;4952896;28;20061;-75
2022/10/25 09:03:34;;;;;;;0.20;0.20;;;;;;;14.49;100.00;96633.84;4956166;28;20125;-74
2022/10/25 09:06:34;;;;;;;0.10;0.10;;;;;;;13.93;100.00;96641.00;4955822;28;20204;-74
2022/10/25 09:09:41;;;;;;;0.10;0.10;;;;;;;14.32;100.00;96644.03;4954390;28;20045;-75
2022/10/25 09:12:55;;;;;;;0.10;0.10;;;;;;;15.00;100.00;96644.56;4956407;28;20043;-75
2022/10/25 09:16:04;;;;;;;0.15;0.15;;;;;;;14.59;100.00;96649.19;4957412;28;20558;-73
2022/10/25 09:18:56;;;;;;;0.10;0.10;;;;;;;13.90;100.00;96644.19;4955131;28;20399;-73
2022/10/25 09:21:44;;;;;;;;;;;;;;;14.27;100.00;96652.09;4953979;28;20189;-74
2022/10/25 09:24:50;;;;;;;0.10;0.10;;;;;;;14.62;100.00;96651.34;4952999;28;19918;-77
2022/10/25 09:27:56;;;;;;;0.10;0.10;;;;;;;14.82;100.00;96655.13;4956379;28;20329;-77
2022/10/25 09:30:43;;;;;;;0.20;0.20;;;;;;;14.89;100.00;96655.66;4958295;28;20046;-76
2022/10/25 09:33:30;;;;;;;0.10;0.10;;;;;;;15.30;100.00;96669.84;4954150;28;20133;-75
2022/10/25 09:36:17;;;;;;;0.20;0.20;;;;;;;15.73;100.00;96665.72;4951289;28;21299;-75
2022/10/25 09:39:14;;;;;;;0.20;0.20;;;;;;;17.24;100.00;96666.84;4951229;28;20249;-75
2022/10/25 09:42:01;;;;;;;0.10;0.10;;;;;;;16.29;100.00;96662.72;4954413;28;20047;-75
2022/10/25 09:44:52;;;;;;;0.15;0.15;;;;;;;16.00;100.00;96670.72;4940801;28;20054;-75
2022/10/25 09:48:03;;;;;;;0.10;0.10;;;;;;;14.80;100.00;96673.44;4951884;28;20538;-73
2022/10/25 09:51:13;;;;;;;0.10;0.10;;;;;;;14.76;100.00;96671.25;4953352;28;20042;-74
2022/10/25 09:54:04;;;;;;;0.10;0.10;;;;;;;14.80;100.00;96679.63;4950486;28;20751;-74
2022/10/25 09:56:50;;;;;;;;;;;;;;;14.79;100.00;96682.59;4952839;28;20041;-75
2022/10/25 09:59:36;;;;;;;0.10;0.10;;;;;;;14.25;100.00;96691.94;4957117;28;19921;-75
2022/10/25 10:02:24;;;;;;;0.10;0.10;;;;;;;14.34;100.00;96676.88;4951563;28;20488;-74
2022/10/25 10:05:15;;;;;;;0.10;0.10;;;;;;;14.62;100.00;96686.34;4954299;28;20046;-77
2022/10/25 10:08:02;;;;;;;0.20;0.20;;;;;;;14.70;100.00;96687.69;4940389;28;20043;-74
2022/10/25 10:10:50;;;;;;;0.20;0.20;;;;;;;14.64;100.00;96694.97;4940099;28;20057;-73
2022/10/25 10:13:43;;;;;;;0.10;0.10;;;;;;;14.67;100.00;96693.63;4952806;28;20130;-76
2022/10/25 10:16:37;;;;;;;0.10;0.10;;;;;;;14.16;100.00;96697.03;4951468;28;20062;-74
2022/10/25 10:19:28;;;;;;;0.20;0.20;;;;;;;14.04;100.00;96695.63;4953071;28;20470;-76
2022/10/25 10:22:15;;;;;;;;;;;;;;;13.91;100.00;96705.00;4940201;28;20054;-76
2022/10/25 10:25:03;;;;;;;0.20;0.20;;;;;;;13.94;100.00;96712.56;4954043;28;19918;-76
2022/10/25 10:27:52;;;;;;;0.20;0.20;;;;;;;13.73;100.00;96717.03;4956039;28;20043;-75
2022/10/25 10:30:38;;;;;;;0.13;0.13;;;;;;;13.57;100.00;96709.97;4265836;28;10001078;-77
2022/10/25 10:33:30;;;;;;;0.10;0.10;;;;;;;13.83;100.00;96713.56;4933841;28;20282;-75
2022/10/25 10:36:27;;;;;;;0.20;0.20;;;;;;;14.10;100.00;96699.97;4952179;28;20105;-76
2022/10/25 10:39:21;;;;;;;0.10;0.10;;;;;;;14.22;100.00;96720.16;4953002;28;20586;-75
2022/10/25 10:42:32;;;;;;;0.10;0.10;;;;;;;14.32;100.00;96721.25;4952261;28;20049;-77
2022/10/25 10:45:35;;;;;;;0.10;0.10;;;;;;;14.59;100.00;96707.63;4950772;28;20100;-76
2022/10/25 10:48:23;;;;;;;0.10;0.10;;;;;;;14.79;100.00;96706.84;4951730;28;20122;-76
2022/10/25 10:51:12;;;;;;;0.10;0.10;;;;;;;14.86;100.00;96710.84;4952181;28;20053;-77
2022/10/25 10:54:20;;;;;;;0.20;0.10;;;;;;;15.09;100.00;96711.41;4953742;28;20047;-76
2022/10/25 10:57:27;;;;;;;0.10;0.10;;;;;;;14.81;100.00;96718.16;4953069;28;20124;-77
2022/10/25 11:00:26;;;;;;;0.17;0.17;;;;;;;15.17;100.00;96703.56;4951672;28;20043;-75
2022/10/25 11:03:39;;;;;;;0.20;0.17;;;;;;;15.53;100.00;96706.22;4952760;28;20055;-77
2022/10/25 11:06:34;;;;;;;0.10;0.10;;;;;;;15.67;100.00;96718.06;4953229;28;20550;-77
2022/10/25 11:09:26;;;;;;;0.20;0.20;;;;;;;15.81;100.00;96723.69;4953765;28;20046;-76
2022/10/25 11:12:15;;;;;;;0.17;0.17;;;;;;;17.47;100.00;96709.34;4956212;28;20550;-75
2022/10/25 11:15:01;;;;;;;0.20;0.20;;;;;;;18.73;100.00;96702.66;4957759;28;20038;-75
2022/10/25 11:17:53;;;;;;;0.13;0.13;;;;;;;20.45;100.00;96703.31;4956521;28;20042;-75
2022/10/25 11:20:58;;;;;;;0.13;0.13;;;;;;;20.10;96.22;96704.84;4951683;28;20053;-76
2022/10/25 11:23:59;;;;;;;0.10;0.10;;;;;;;18.06;100.00;96708.19;4952316;28;20065;-74
2022/10/25 11:26:50;;;;;;;0.10;0.10;;;;;;;17.21;100.00;96711.50;4957907;28;20038;-75
2022/10/25 11:30:02;;;;;;;0.10;0.10;;;;;;;15.93;100.00;96723.38;4956974;28;20046;-76
2022/10/25 11:33:24;;;;;;;0.20;0.20;;;;;;;15.88;100.00;96719.63;4932333;28;20137;-75
2022/10/25 11:36:22;;;;;;;0.10;0.10;;;;;;;16.22;100.00;96718.13;4956072;28;20046;-76
2022/10/25 11:39:43;;;;;;;0.10;0.10;;;;;;;15.50;100.00;96720.25;4955874;28;20050;-75
2022/10/25 11:42:42;;;;;;;0.20;0.20;;;;;;;15.15;100.00;96716.50;4954711;28;20078;-75
2022/10/25 11:45:38;;;;;;;0.10;0.10;;;;;;;15.43;100.00;96711.63;4952658;28;20047;-76
2022/10/25 11:49:19;;;;;;;0.10;0.10;;;;;;;14.97;100.00;96714.38;4952367;28;20038;-75
2022/10/25 11:52:33;;;;;;;0.10;0.10;;;;;;;15.07;100.00;96714.38;4912123;28;20286;-74
2022/10/25 11:55:24;;;;;;;0.20;0.20;;;;;;;15.45;100.00;96707.56;4954068;28;20574;-74
2022/10/25 11:58:35;;;;;;;0.10;0.10;;;;;;;16.44;100.00;96694.22;4950919;28;20047;-76
2022/10/25 12:01:33;;;;;;;0.20;0.20;;;;;;;16.11;100.00;96710.09;4954264;28;20129;-74
2022/10/25 12:04:19;;;;;;;0.10;0.10;;;;;;;15.71;100.00;96710.22;4950300;28;20042;-75
2022/10/25 12:07:20;;;;;;;0.10;0.10;;;;;;;16.24;100.00;96708.66;4957506;28;20054;-75
2022/10/25 12:10:24;;;;;;;0.10;0.10;;;;;;;17.19;100.00;96704.75;4956975;28;20042;-74
2022/10/25 12:13:23;;;;;;;0.10;0.10;;;;;;;17.24;100.00;96691.19;4952370;28;20039;-76
2022/10/25 12:16:13;;;;;;;0.10;0.10;;;;;;;16.34;100.00;96703.22;4951622;28;20035;-75
2022/10/25 12:19:07;;;;;;;0.15;0.13;;;;;;;15.49;100.00;96710.53;4952551;28;20050;-75
2022/10/25 12:21:57;;;;;;;0.13;0.13;;;;;;;15.17;100.00;96703.56;4952601;28;20043;-76
2022/10/25 12:24:55;;;;;;;0.10;0.10;;;;;;;15.15;100.00;96703.03;4956006;28;20051;-75
2022/10/25 12:27:44;;;;;;;0.10;0.10;;;;;;;15.93;100.00;96710.69;4954723;28;20499;-75
2022/10/25 12:30:33;;;;;;;0.20;0.20;;;;;;;16.27;100.00;96710.81;4954556;28;20051;-75
2022/10/25 12:33:47;;;;;;;0.30;0.30;;;;;;;16.05;100.00;96708.50;4941824;28;20105;-75
2022/10/25 12:36:54;;;;;;;0.10;0.10;;;;;;;15.39;100.00;96711.34;4942767;28;20679;-75
2022/10/25 12:39:42;;;;;;;0.20;0.20;;;;;;;16.37;100.00;96707.25;4952878;28;20249;-76
2022/10/25 12:42:43;;;;;;;0.20;0.20;;;;;;;17.16;100.00;96702.63;4951220;28;20047;-76
2022/10/25 12:45:44;;;;;;;0.20;0.20;;;;;;;18.43;100.00;96701.19;4953862;28;20051;-77
2022/10/25 12:48:52;;;;;;;0.30;0.30;;;;;;;20.83;87.73;96692.91;4951485;28;20042;-77
2022/10/25 12:52:06;;;;;;;0.13;0.13;;;;;;;19.12;97.71;96698.78;4952625;28;20058;-74
2022/10/25 12:55:13;;;;;;;0.10;0.10;;;;;;;18.08;100.00;96699.75;4937288;28;20047;-76
2022/10/25 12:58:31;;;;;;;0.10;0.10;;;;;;;18.92;97.68;96702.66;4956579;28;20050;-76
2022/10/25 13:02:08;;;;;;;0.20;0.20;;;;;;;18.21;100.00;96692.81;4945730;28;20261;-77
2022/10/25 13:05:32;;;;;;;0.10;0.10;;;;;;;17.37;100.00;96697.84;4953330;28;20554;-76
2022/10/25 13:08:21;;;;;;;0.20;0.20;;;;;;;20.62;92.26;96693.69;4951870;28;20043;-76
2022/10/25 13:11:08;;;;;;;0.10;0.10;;;;;;;20.80;89.97;96690.81;4953316;28;20078;-78
2022/10/25 13:13:54;;;;;;;0.10;0.10;;;;;;;18.85;99.31;96694.09;4954389;28;20046;-75
2022/10/25 13:16:40;;;;;;;0.20;0.20;;;;;;;19.10;98.53;96698.28;4954794;28;20364;-74
2022/10/25 13:19:28;;;;;;;0.10;0.10;;;;;;;19.63;92.77;96690.59;4954416;28;20106;-75